sensor_id;sensor_type;location;lat;lon;timestamp;P1;durP1;ratioP1;P2;durP2;ratioP2
10410;SDS011;5251;52.112;8.606;2022-08-19T00:01:42;6.40;;;4.82;;
10410;SDS011;5251;52.112;8.606;2022-08-19T00:04:10;5.65;;;4.40;;
10410;SDS011;5251;52.112;8.606;2022-08-19T00:06:38;5.15;;;3.88;;
10410;SDS011;5251;52.112;8.606;2022-08-19T00:09:06;5.25;;;4.20;;
10410;SDS011;5251;52.112;8.606;2022-08-19T00:11:33;4.47;;;3.55;;
10410;SDS011;5251;52.112;8.606;2022-08-19T00:14:01;4.18;;;3.78;;
10410;SDS011;5251;52.112;8.606;2022-08-19T00:16:27;4.45;;;3.47;;
10410;SDS011;5251;52.112;8.606;2022-08-19T00:18:53;4.50;;;3.85;;
10410;SDS011;5251;52.112;8.606;2022-08-19T00:21:20;4.20;;;3.80;;
10410;SDS011;5251;52.112;8.606;2022-08-19T00:23:46;4.72;;;4.28;;
10410;SDS011;5251;52.112;8.606;2022-08-19T00:26:12;6.97;;;4.00;;
10410;SDS011;5251;52.112;8.606;2022-08-19T00:28:37;4.35;;;3.72;;
10410;SDS011;5251;52.112;8.606;2022-08-19T00:31:03;5.20;;;4.38;;
10410;SDS011;5251;52.112;8.606;2022-08-19T00:33:30;5.30;;;4.07;;
10410;SDS011;5251;52.112;8.606;2022-08-19T00:35:59;4.88;;;4.35;;
10410;SDS011;5251;52.112;8.606;2022-08-19T00:38:26;4.72;;;3.80;;
10410;SDS011;5251;52.112;8.606;2022-08-19T00:40:52;5.50;;;4.22;;
10410;SDS011;5251;52.112;8.606;2022-08-19T00:43:19;5.63;;;5.10;;
10410;SDS011;5251;52.112;8.606;2022-08-19T00:45:47;5.78;;;4.82;;
10410;SDS011;5251;52.112;8.606;2022-08-19T00:48:13;6.78;;;5.45;;
10410;SDS011;5251;52.112;8.606;2022-08-19T00:50:40;6.68;;;5.03;;
10410;SDS011;5251;52.112;8.606;2022-08-19T00:53:07;7.22;;;4.95;;
10410;SDS011;5251;52.112;8.606;2022-08-19T00:55:34;5.90;;;4.90;;
10410;SDS011;5251;52.112;8.606;2022-08-19T00:58:02;5.32;;;4.80;;
10410;SDS011;5251;52.112;8.606;2022-08-19T01:00:32;4.90;;;4.43;;
10410;SDS011;5251;52.112;8.606;2022-08-19T01:03:01;5.45;;;4.95;;
10410;SDS011;5251;52.112;8.606;2022-08-19T01:05:29;6.35;;;5.10;;
10410;SDS011;5251;52.112;8.606;2022-08-19T01:07:56;5.00;;;4.60;;
10410;SDS011;5251;52.112;8.606;2022-08-19T01:10:25;7.00;;;5.32;;
10410;SDS011;5251;52.112;8.606;2022-08-19T01:12:54;6.50;;;5.25;;
10410;SDS011;5251;52.112;8.606;2022-08-19T01:15:23;6.43;;;5.15;;
10410;SDS011;5251;52.112;8.606;2022-08-19T01:17:54;5.03;;;4.60;;
10410;SDS011;5251;52.112;8.606;2022-08-19T01:20:22;5.53;;;4.93;;
10410;SDS011;5251;52.112;8.606;2022-08-19T01:22:53;5.03;;;4.53;;
10410;SDS011;5251;52.112;8.606;2022-08-19T01:25:34;5.03;;;4.53;;
10410;SDS011;5251;52.112;8.606;2022-08-19T01:28:04;7.60;;;5.55;;
10410;SDS011;5251;52.112;8.606;2022-08-19T01:30:32;7.85;;;4.75;;
10410;SDS011;5251;52.112;8.606;2022-08-19T01:32:59;5.20;;;4.70;;
10410;SDS011;5251;52.112;8.606;2022-08-19T01:35:27;4.95;;;4.50;;
10410;SDS011;5251;52.112;8.606;2022-08-19T01:37:59;5.70;;;4.30;;
10410;SDS011;5251;52.112;8.606;2022-08-19T01:40:28;5.32;;;4.40;;
10410;SDS011;5251;52.112;8.606;2022-08-19T01:42:56;5.07;;;3.83;;
10410;SDS011;5251;52.112;8.606;2022-08-19T01:45:23;6.32;;;4.15;;
10410;SDS011;5251;52.112;8.606;2022-08-19T01:47:50;5.38;;;4.32;;
10410;SDS011;5251;52.112;8.606;2022-08-19T01:50:16;5.10;;;4.30;;
10410;SDS011;5251;52.112;8.606;2022-08-19T01:52:42;5.25;;;4.47;;
10410;SDS011;5251;52.112;8.606;2022-08-19T01:55:11;5.28;;;4.43;;
10410;SDS011;5251;52.112;8.606;2022-08-19T01:57:43;6.10;;;5.40;;
10410;SDS011;5251;52.112;8.606;2022-08-19T02:00:13;6.18;;;5.50;;
10410;SDS011;5251;52.112;8.606;2022-08-19T02:02:41;6.28;;;5.53;;
10410;SDS011;5251;52.112;8.606;2022-08-19T02:05:07;7.88;;;6.10;;
10410;SDS011;5251;52.112;8.606;2022-08-19T02:07:34;6.10;;;5.60;;
10410;SDS011;5251;52.112;8.606;2022-08-19T02:12:47;7.55;;;6.18;;
10410;SDS011;5251;52.112;8.606;2022-08-19T02:15:14;8.00;;;6.10;;
10410;SDS011;5251;52.112;8.606;2022-08-19T02:17:41;6.97;;;6.30;;
10410;SDS011;5251;52.112;8.606;2022-08-19T02:20:07;7.75;;;5.88;;
10410;SDS011;5251;52.112;8.606;2022-08-19T02:22:34;6.45;;;5.70;;
10410;SDS011;5251;52.112;8.606;2022-08-19T02:25:00;8.02;;;6.13;;
10410;SDS011;5251;52.112;8.606;2022-08-19T02:27:26;7.65;;;6.60;;
10410;SDS011;5251;52.112;8.606;2022-08-19T02:29:52;9.90;;;6.18;;
10410;SDS011;5251;52.112;8.606;2022-08-19T02:32:18;8.18;;;6.53;;
10410;SDS011;5251;52.112;8.606;2022-08-19T02:34:45;7.40;;;6.70;;
10410;SDS011;5251;52.112;8.606;2022-08-19T02:37:11;6.93;;;6.22;;
10410;SDS011;5251;52.112;8.606;2022-08-19T02:39:56;8.05;;;6.78;;
10410;SDS011;5251;52.112;8.606;2022-08-19T02:42:22;6.88;;;6.18;;
10410;SDS011;5251;52.112;8.606;2022-08-19T02:44:47;8.27;;;6.50;;
10410;SDS011;5251;52.112;8.606;2022-08-19T02:47:13;8.52;;;6.60;;
10410;SDS011;5251;52.112;8.606;2022-08-19T02:49:40;7.43;;;6.60;;
10410;SDS011;5251;52.112;8.606;2022-08-19T02:52:05;7.13;;;6.43;;
10410;SDS011;5251;52.112;8.606;2022-08-19T02:54:31;7.18;;;6.47;;
10410;SDS011;5251;52.112;8.606;2022-08-19T02:56:57;8.45;;;6.55;;
10410;SDS011;5251;52.112;8.606;2022-08-19T02:59:22;7.50;;;6.80;;
10410;SDS011;5251;52.112;8.606;2022-08-19T03:01:48;8.75;;;6.78;;
10410;SDS011;5251;52.112;8.606;2022-08-19T03:04:14;7.95;;;7.15;;
10410;SDS011;5251;52.112;8.606;2022-08-19T03:06:42;8.02;;;6.95;;
10410;SDS011;5251;52.112;8.606;2022-08-19T03:09:10;8.68;;;7.22;;
10410;SDS011;5251;52.112;8.606;2022-08-19T03:11:37;8.30;;;7.35;;
10410;SDS011;5251;52.112;8.606;2022-08-19T03:14:03;7.93;;;6.72;;
10410;SDS011;5251;52.112;8.606;2022-08-19T03:16:31;7.53;;;6.30;;
10410;SDS011;5251;52.112;8.606;2022-08-19T03:19:04;8.38;;;6.80;;
10410;SDS011;5251;52.112;8.606;2022-08-19T03:21:31;6.88;;;6.25;;
10410;SDS011;5251;52.112;8.606;2022-08-19T03:23:59;6.75;;;6.05;;
10410;SDS011;5251;52.112;8.606;2022-08-19T03:26:26;7.72;;;6.93;;
10410;SDS011;5251;52.112;8.606;2022-08-19T03:28:52;7.28;;;6.22;;
10410;SDS011;5251;52.112;8.606;2022-08-19T03:31:18;7.32;;;6.63;;
10410;SDS011;5251;52.112;8.606;2022-08-19T03:33:46;7.03;;;6.10;;
10410;SDS011;5251;52.112;8.606;2022-08-19T03:36:19;7.53;;;6.72;;
10410;SDS011;5251;52.112;8.606;2022-08-19T03:38:52;7.25;;;6.20;;
10410;SDS011;5251;52.112;8.606;2022-08-19T03:41:21;6.50;;;5.88;;
10410;SDS011;5251;52.112;8.606;2022-08-19T03:43:52;7.70;;;6.90;;
10410;SDS011;5251;52.112;8.606;2022-08-19T03:46:20;7.78;;;6.97;;
10410;SDS011;5251;52.112;8.606;2022-08-19T03:48:48;7.47;;;6.07;;
10410;SDS011;5251;52.112;8.606;2022-08-19T03:51:22;8.55;;;7.00;;
10410;SDS011;5251;52.112;8.606;2022-08-19T03:53:50;7.72;;;6.93;;
10410;SDS011;5251;52.112;8.606;2022-08-19T03:56:17;15.30;;;7.35;;
10410;SDS011;5251;52.112;8.606;2022-08-19T03:58:43;7.38;;;6.68;;
10410;SDS011;5251;52.112;8.606;2022-08-19T04:01:14;8.13;;;6.75;;
10410;SDS011;5251;52.112;8.606;2022-08-19T04:03:42;7.97;;;6.63;;
10410;SDS011;5251;52.112;8.606;2022-08-19T04:06:13;7.10;;;6.32;;
10410;SDS011;5251;52.112;8.606;2022-08-19T04:08:42;7.80;;;7.00;;
10410;SDS011;5251;52.112;8.606;2022-08-19T04:11:10;10.50;;;7.95;;
10410;SDS011;5251;52.112;8.606;2022-08-19T04:13:37;8.68;;;7.63;;
10410;SDS011;5251;52.112;8.606;2022-08-19T04:16:03;9.25;;;8.27;;
10410;SDS011;5251;52.112;8.606;2022-08-19T04:18:30;9.48;;;8.45;;
10410;SDS011;5251;52.112;8.606;2022-08-19T04:20:58;9.40;;;8.07;;
10410;SDS011;5251;52.112;8.606;2022-08-19T04:23:24;9.30;;;7.60;;
10410;SDS011;5251;52.112;8.606;2022-08-19T04:25:49;8.05;;;7.25;;
10410;SDS011;5251;52.112;8.606;2022-08-19T04:28:15;9.25;;;7.97;;
10410;SDS011;5251;52.112;8.606;2022-08-19T04:30:47;9.18;;;8.10;;
10410;SDS011;5251;52.112;8.606;2022-08-19T04:33:19;9.65;;;8.43;;
10410;SDS011;5251;52.112;8.606;2022-08-19T04:35:47;9.52;;;8.52;;
10410;SDS011;5251;52.112;8.606;2022-08-19T04:38:17;9.93;;;8.65;;
10410;SDS011;5251;52.112;8.606;2022-08-19T04:40:48;12.77;;;9.80;;
10410;SDS011;5251;52.112;8.606;2022-08-19T04:43:34;9.77;;;8.77;;
10410;SDS011;5251;52.112;8.606;2022-08-19T04:46:05;10.98;;;9.25;;
10410;SDS011;5251;52.112;8.606;2022-08-19T04:48:35;9.32;;;8.32;;
10410;SDS011;5251;52.112;8.606;2022-08-19T04:51:05;9.15;;;8.25;;
10410;SDS011;5251;52.112;8.606;2022-08-19T04:53:33;13.20;;;8.98;;
10410;SDS011;5251;52.112;8.606;2022-08-19T04:56:02;10.48;;;9.25;;
10410;SDS011;5251;52.112;8.606;2022-08-19T04:58:32;10.98;;;9.23;;
10410;SDS011;5251;52.112;8.606;2022-08-19T05:00:59;10.43;;;8.63;;
10410;SDS011;5251;52.112;8.606;2022-08-19T05:03:25;11.77;;;9.02;;
10410;SDS011;5251;52.112;8.606;2022-08-19T05:05:51;10.48;;;9.10;;
10410;SDS011;5251;52.112;8.606;2022-08-19T05:08:19;11.48;;;8.63;;
10410;SDS011;5251;52.112;8.606;2022-08-19T05:10:47;11.23;;;9.43;;
10410;SDS011;5251;52.112;8.606;2022-08-19T05:13:15;9.63;;;8.63;;
10410;SDS011;5251;52.112;8.606;2022-08-19T05:15:42;10.32;;;9.27;;
10410;SDS011;5251;52.112;8.606;2022-08-19T05:18:08;11.43;;;10.05;;
10410;SDS011;5251;52.112;8.606;2022-08-19T05:20:53;11.43;;;9.27;;
10410;SDS011;5251;52.112;8.606;2022-08-19T05:23:37;10.73;;;9.60;;
10410;SDS011;5251;52.112;8.606;2022-08-19T05:26:02;9.50;;;8.50;;
10410;SDS011;5251;52.112;8.606;2022-08-19T05:28:29;10.70;;;9.45;;
10410;SDS011;5251;52.112;8.606;2022-08-19T05:30:54;10.05;;;8.65;;
10410;SDS011;5251;52.112;8.606;2022-08-19T05:33:20;9.25;;;8.35;;
10410;SDS011;5251;52.112;8.606;2022-08-19T05:35:46;10.70;;;9.10;;
10410;SDS011;5251;52.112;8.606;2022-08-19T05:38:13;9.43;;;8.43;;
10410;SDS011;5251;52.112;8.606;2022-08-19T05:40:39;11.65;;;8.98;;
10410;SDS011;5251;52.112;8.606;2022-08-19T05:43:05;10.05;;;8.88;;
10410;SDS011;5251;52.112;8.606;2022-08-19T05:45:32;9.07;;;8.13;;
10410;SDS011;5251;52.112;8.606;2022-08-19T05:48:02;9.70;;;8.68;;
10410;SDS011;5251;52.112;8.606;2022-08-19T05:50:28;11.98;;;10.13;;
10410;SDS011;5251;52.112;8.606;2022-08-19T05:52:54;10.90;;;9.80;;
10410;SDS011;5251;52.112;8.606;2022-08-19T05:55:20;10.93;;;8.70;;
10410;SDS011;5251;52.112;8.606;2022-08-19T05:57:45;11.38;;;9.65;;
10410;SDS011;5251;52.112;8.606;2022-08-19T06:00:12;11.32;;;10.20;;
10410;SDS011;5251;52.112;8.606;2022-08-19T06:02:39;11.63;;;9.07;;
10410;SDS011;5251;52.112;8.606;2022-08-19T06:05:05;10.70;;;9.60;;
10410;SDS011;5251;52.112;8.606;2022-08-19T06:07:34;10.32;;;9.32;;
10410;SDS011;5251;52.112;8.606;2022-08-19T06:10:00;9.20;;;8.25;;
10410;SDS011;5251;52.112;8.606;2022-08-19T06:12:28;11.68;;;9.38;;
10410;SDS011;5251;52.112;8.606;2022-08-19T06:15:09;9.85;;;8.85;;
10410;SDS011;5251;52.112;8.606;2022-08-19T06:17:36;10.30;;;9.18;;
10410;SDS011;5251;52.112;8.606;2022-08-19T06:20:06;10.90;;;8.65;;
10410;SDS011;5251;52.112;8.606;2022-08-19T06:22:37;8.38;;;7.57;;
10410;SDS011;5251;52.112;8.606;2022-08-19T06:25:07;9.80;;;8.55;;
10410;SDS011;5251;52.112;8.606;2022-08-19T06:27:34;9.82;;;7.85;;
10410;SDS011;5251;52.112;8.606;2022-08-19T06:30:00;9.05;;;7.63;;
10410;SDS011;5251;52.112;8.606;2022-08-19T06:32:27;8.77;;;7.88;;
10410;SDS011;5251;52.112;8.606;2022-08-19T06:34:53;8.02;;;7.07;;
10410;SDS011;5251;52.112;8.606;2022-08-19T06:37:19;7.20;;;6.35;;
10410;SDS011;5251;52.112;8.606;2022-08-19T06:39:46;10.73;;;7.22;;
10410;SDS011;5251;52.112;8.606;2022-08-19T06:42:12;7.40;;;6.70;;
10410;SDS011;5251;52.112;8.606;2022-08-19T06:44:41;7.65;;;6.88;;
10410;SDS011;5251;52.112;8.606;2022-08-19T06:47:09;7.13;;;6.43;;
10410;SDS011;5251;52.112;8.606;2022-08-19T06:49:37;5.88;;;5.35;;
10410;SDS011;5251;52.112;8.606;2022-08-19T06:52:03;6.00;;;5.35;;
10410;SDS011;5251;52.112;8.606;2022-08-19T06:54:30;5.78;;;5.20;;
10410;SDS011;5251;52.112;8.606;2022-08-19T06:56:59;6.22;;;5.10;;
10410;SDS011;5251;52.112;8.606;2022-08-19T06:59:29;4.53;;;4.13;;
10410;SDS011;5251;52.112;8.606;2022-08-19T07:01:57;4.63;;;4.10;;
10410;SDS011;5251;52.112;8.606;2022-08-19T07:04:25;4.75;;;4.20;;
10410;SDS011;5251;52.112;8.606;2022-08-19T07:06:57;5.28;;;4.78;;
10410;SDS011;5251;52.112;8.606;2022-08-19T07:09:25;5.10;;;4.40;;
10410;SDS011;5251;52.112;8.606;2022-08-19T07:11:51;4.63;;;4.05;;
10410;SDS011;5251;52.112;8.606;2022-08-19T07:14:18;3.80;;;3.28;;
10410;SDS011;5251;52.112;8.606;2022-08-19T07:16:46;4.60;;;4.07;;
10410;SDS011;5251;52.112;8.606;2022-08-19T07:19:13;5.22;;;3.50;;
10410;SDS011;5251;52.112;8.606;2022-08-19T07:21:40;4.40;;;4.00;;
10410;SDS011;5251;52.112;8.606;2022-08-19T07:24:06;4.25;;;3.80;;
10410;SDS011;5251;52.112;8.606;2022-08-19T07:26:40;4.82;;;3.28;;
10410;SDS011;5251;52.112;8.606;2022-08-19T07:29:07;4.03;;;3.60;;
10410;SDS011;5251;52.112;8.606;2022-08-19T07:31:33;4.13;;;3.20;;
10410;SDS011;5251;52.112;8.606;2022-08-19T07:34:01;5.25;;;3.83;;
10410;SDS011;5251;52.112;8.606;2022-08-19T07:36:28;4.07;;;3.67;;
10410;SDS011;5251;52.112;8.606;2022-08-19T07:38:57;4.22;;;3.58;;
10410;SDS011;5251;52.112;8.606;2022-08-19T07:41:25;3.58;;;3.28;;
10410;SDS011;5251;52.112;8.606;2022-08-19T07:43:53;4.13;;;3.45;;
10410;SDS011;5251;52.112;8.606;2022-08-19T07:46:19;3.50;;;3.20;;
10410;SDS011;5251;52.112;8.606;2022-08-19T07:48:45;3.75;;;3.33;;
10410;SDS011;5251;52.112;8.606;2022-08-19T07:51:12;4.60;;;3.70;;
10410;SDS011;5251;52.112;8.606;2022-08-19T07:53:40;4.00;;;3.60;;
10410;SDS011;5251;52.112;8.606;2022-08-19T07:56:06;4.53;;;3.70;;
10410;SDS011;5251;52.112;8.606;2022-08-19T07:58:32;4.70;;;3.78;;
10410;SDS011;5251;52.112;8.606;2022-08-19T08:01:01;4.13;;;3.63;;
10410;SDS011;5251;52.112;8.606;2022-08-19T08:03:29;4.20;;;3.80;;
10410;SDS011;5251;52.112;8.606;2022-08-19T08:06:14;4.70;;;4.10;;
10410;SDS011;5251;52.112;8.606;2022-08-19T08:08:59;5.05;;;4.10;;
10410;SDS011;5251;52.112;8.606;2022-08-19T08:11:38;5.63;;;4.90;;
10410;SDS011;5251;52.112;8.606;2022-08-19T08:14:06;4.85;;;4.25;;
10410;SDS011;5251;52.112;8.606;2022-08-19T08:16:36;4.80;;;4.30;;
10410;SDS011;5251;52.112;8.606;2022-08-19T08:19:03;4.70;;;4.20;;
10410;SDS011;5251;52.112;8.606;2022-08-19T08:21:31;5.72;;;5.13;;
10410;SDS011;5251;52.112;8.606;2022-08-19T08:23:58;4.90;;;4.35;;
10410;SDS011;5251;52.112;8.606;2022-08-19T08:26:24;5.03;;;4.15;;
10410;SDS011;5251;52.112;8.606;2022-08-19T08:28:50;5.53;;;4.60;;
10410;SDS011;5251;52.112;8.606;2022-08-19T08:31:17;4.40;;;4.00;;
10410;SDS011;5251;52.112;8.606;2022-08-19T08:33:44;4.35;;;3.95;;
10410;SDS011;5251;52.112;8.606;2022-08-19T08:36:10;5.75;;;4.95;;
10410;SDS011;5251;52.112;8.606;2022-08-19T08:38:38;4.60;;;4.00;;
10410;SDS011;5251;52.112;8.606;2022-08-19T08:44:02;3.92;;;3.63;;
10410;SDS011;5251;52.112;8.606;2022-08-19T08:52:06;5.90;;;4.70;;
10410;SDS011;5251;52.112;8.606;2022-08-19T08:54:40;4.63;;;4.20;;
10410;SDS011;5251;52.112;8.606;2022-08-19T08:57:12;4.07;;;3.45;;
10410;SDS011;5251;52.112;8.606;2022-08-19T08:59:43;4.70;;;4.22;;
10410;SDS011;5251;52.112;8.606;2022-08-19T09:02:15;4.40;;;4.00;;
10410;SDS011;5251;52.112;8.606;2022-08-19T09:04:41;4.25;;;3.53;;
10410;SDS011;5251;52.112;8.606;2022-08-19T09:09:46;5.13;;;3.75;;
10410;SDS011;5251;52.112;8.606;2022-08-19T09:17:18;5.45;;;3.60;;
10410;SDS011;5251;52.112;8.606;2022-08-19T09:19:56;3.60;;;3.30;;
10410;SDS011;5251;52.112;8.606;2022-08-19T09:22:29;4.13;;;3.30;;
10410;SDS011;5251;52.112;8.606;2022-08-19T09:24:55;3.08;;;2.88;;
10410;SDS011;5251;52.112;8.606;2022-08-19T09:27:21;3.80;;;3.38;;
10410;SDS011;5251;52.112;8.606;2022-08-19T09:29:51;4.82;;;3.78;;
10410;SDS011;5251;52.112;8.606;2022-08-19T09:32:18;3.60;;;3.10;;
10410;SDS011;5251;52.112;8.606;2022-08-19T09:34:44;5.05;;;3.63;;
10410;SDS011;5251;52.112;8.606;2022-08-19T09:37:10;3.50;;;3.20;;
10410;SDS011;5251;52.112;8.606;2022-08-19T09:39:37;3.70;;;2.67;;
10410;SDS011;5251;52.112;8.606;2022-08-19T09:42:03;3.10;;;2.60;;
10410;SDS011;5251;52.112;8.606;2022-08-19T09:44:29;3.20;;;2.38;;
10410;SDS011;5251;52.112;8.606;2022-08-19T09:46:55;4.07;;;2.53;;
10410;SDS011;5251;52.112;8.606;2022-08-19T09:49:21;2.40;;;2.20;;
10410;SDS011;5251;52.112;8.606;2022-08-19T09:51:49;3.10;;;2.60;;
10410;SDS011;5251;52.112;8.606;2022-08-19T09:54:15;2.80;;;2.45;;
10410;SDS011;5251;52.112;8.606;2022-08-19T09:56:40;2.58;;;2.38;;
10410;SDS011;5251;52.112;8.606;2022-08-19T09:59:06;2.63;;;2.42;;
10410;SDS011;5251;52.112;8.606;2022-08-19T10:01:32;3.05;;;2.40;;
10410;SDS011;5251;52.112;8.606;2022-08-19T10:03:58;2.40;;;2.15;;
10410;SDS011;5251;52.112;8.606;2022-08-19T10:06:26;2.42;;;2.20;;
10410;SDS011;5251;52.112;8.606;2022-08-19T10:08:56;3.53;;;2.60;;
10410;SDS011;5251;52.112;8.606;2022-08-19T10:11:21;2.22;;;2.00;;
10410;SDS011;5251;52.112;8.606;2022-08-19T10:13:47;2.22;;;2.00;;
10410;SDS011;5251;52.112;8.606;2022-08-19T10:16:14;5.78;;;2.70;;
10410;SDS011;5251;52.112;8.606;2022-08-19T10:18:43;2.33;;;1.98;;
10410;SDS011;5251;52.112;8.606;2022-08-19T10:21:11;2.78;;;2.33;;
10410;SDS011;5251;52.112;8.606;2022-08-19T10:23:40;2.63;;;2.30;;
10410;SDS011;5251;52.112;8.606;2022-08-19T10:26:11;2.47;;;2.28;;
10410;SDS011;5251;52.112;8.606;2022-08-19T10:28:39;2.38;;;2.17;;
10410;SDS011;5251;52.112;8.606;2022-08-19T10:31:07;2.60;;;2.40;;
10410;SDS011;5251;52.112;8.606;2022-08-19T10:33:34;2.22;;;1.80;;
10410;SDS011;5251;52.112;8.606;2022-08-19T10:36:05;2.50;;;2.30;;
10410;SDS011;5251;52.112;8.606;2022-08-19T10:38:33;2.40;;;2.20;;
10410;SDS011;5251;52.112;8.606;2022-08-19T10:41:13;2.53;;;2.08;;
10410;SDS011;5251;52.112;8.606;2022-08-19T10:43:41;2.10;;;1.90;;
10410;SDS011;5251;52.112;8.606;2022-08-19T10:46:08;2.38;;;2.10;;
10410;SDS011;5251;52.112;8.606;2022-08-19T10:48:35;3.47;;;2.20;;
10410;SDS011;5251;52.112;8.606;2022-08-19T10:51:01;2.67;;;2.42;;
10410;SDS011;5251;52.112;8.606;2022-08-19T10:53:46;2.50;;;2.30;;
10410;SDS011;5251;52.112;8.606;2022-08-19T10:56:12;2.13;;;1.92;;
10410;SDS011;5251;52.112;8.606;2022-08-19T10:58:57;2.28;;;2.00;;
10410;SDS011;5251;52.112;8.606;2022-08-19T11:01:23;2.38;;;2.17;;
10410;SDS011;5251;52.112;8.606;2022-08-19T11:03:49;2.15;;;1.95;;
10410;SDS011;5251;52.112;8.606;2022-08-19T11:06:15;3.15;;;2.00;;
10410;SDS011;5251;52.112;8.606;2022-08-19T11:08:41;1.90;;;1.75;;
10410;SDS011;5251;52.112;8.606;2022-08-19T11:11:10;1.95;;;1.70;;
10410;SDS011;5251;52.112;8.606;2022-08-19T11:13:37;1.90;;;1.80;;
10410;SDS011;5251;52.112;8.606;2022-08-19T11:16:09;1.70;;;1.58;;
10410;SDS011;5251;52.112;8.606;2022-08-19T11:18:39;1.70;;;1.60;;
10410;SDS011;5251;52.112;8.606;2022-08-19T11:21:08;2.85;;;1.83;;
10410;SDS011;5251;52.112;8.606;2022-08-19T11:23:36;1.75;;;1.52;;
10410;SDS011;5251;52.112;8.606;2022-08-19T11:26:02;1.50;;;1.40;;
10410;SDS011;5251;52.112;8.606;2022-08-19T11:28:28;2.35;;;1.60;;
10410;SDS011;5251;52.112;8.606;2022-08-19T11:30:54;1.70;;;1.58;;
10410;SDS011;5251;52.112;8.606;2022-08-19T11:33:19;1.90;;;1.65;;
10410;SDS011;5251;52.112;8.606;2022-08-19T11:35:45;2.00;;;1.50;;
10410;SDS011;5251;52.112;8.606;2022-08-19T11:38:11;2.03;;;1.85;;
10410;SDS011;5251;52.112;8.606;2022-08-19T11:40:37;2.53;;;1.60;;
10410;SDS011;5251;52.112;8.606;2022-08-19T11:43:03;2.17;;;1.80;;
10410;SDS011;5251;52.112;8.606;2022-08-19T11:45:29;1.77;;;1.60;;
10410;SDS011;5251;52.112;8.606;2022-08-19T11:47:55;2.25;;;2.05;;
10410;SDS011;5251;52.112;8.606;2022-08-19T11:50:22;3.00;;;1.80;;
10410;SDS011;5251;52.112;8.606;2022-08-19T11:52:48;2.00;;;1.90;;
10410;SDS011;5251;52.112;8.606;2022-08-19T11:55:14;1.73;;;1.63;;
10410;SDS011;5251;52.112;8.606;2022-08-19T11:57:40;2.22;;;1.80;;
10410;SDS011;5251;52.112;8.606;2022-08-19T12:00:08;5.30;;;1.85;;
10410;SDS011;5251;52.112;8.606;2022-08-19T12:02:36;1.80;;;1.67;;
10410;SDS011;5251;52.112;8.606;2022-08-19T12:05:02;2.17;;;1.70;;
10410;SDS011;5251;52.112;8.606;2022-08-19T12:07:28;2.08;;;1.80;;
10410;SDS011;5251;52.112;8.606;2022-08-19T12:09:58;2.60;;;2.10;;
10410;SDS011;5251;52.112;8.606;2022-08-19T12:12:25;2.95;;;2.22;;
10410;SDS011;5251;52.112;8.606;2022-08-19T12:14:52;2.00;;;1.77;;
10410;SDS011;5251;52.112;8.606;2022-08-19T12:17:22;1.80;;;1.70;;
10410;SDS011;5251;52.112;8.606;2022-08-19T12:19:48;2.10;;;2.00;;
10410;SDS011;5251;52.112;8.606;2022-08-19T12:22:14;2.60;;;1.67;;
10410;SDS011;5251;52.112;8.606;2022-08-19T12:24:40;1.98;;;1.80;;
10410;SDS011;5251;52.112;8.606;2022-08-19T12:27:05;2.15;;;1.90;;
10410;SDS011;5251;52.112;8.606;2022-08-19T12:29:31;2.83;;;2.08;;
10410;SDS011;5251;52.112;8.606;2022-08-19T12:31:57;1.88;;;1.77;;
10410;SDS011;5251;52.112;8.606;2022-08-19T12:34:26;1.90;;;1.80;;
10410;SDS011;5251;52.112;8.606;2022-08-19T12:36:55;2.70;;;2.05;;
10410;SDS011;5251;52.112;8.606;2022-08-19T12:39:25;3.00;;;1.80;;
10410;SDS011;5251;52.112;8.606;2022-08-19T12:41:51;2.70;;;2.08;;
10410;SDS011;5251;52.112;8.606;2022-08-19T12:44:17;2.28;;;1.75;;
10410;SDS011;5251;52.112;8.606;2022-08-19T12:46:43;2.10;;;1.90;;
10410;SDS011;5251;52.112;8.606;2022-08-19T12:49:09;3.00;;;2.00;;
10410;SDS011;5251;52.112;8.606;2022-08-19T12:51:35;2.67;;;1.90;;
10410;SDS011;5251;52.112;8.606;2022-08-19T12:54:01;2.75;;;2.30;;
10410;SDS011;5251;52.112;8.606;2022-08-19T12:56:27;2.03;;;1.80;;
10410;SDS011;5251;52.112;8.606;2022-08-19T12:58:52;1.70;;;1.60;;
10410;SDS011;5251;52.112;8.606;2022-08-19T13:01:18;2.25;;;2.05;;
10410;SDS011;5251;52.112;8.606;2022-08-19T13:03:45;2.20;;;1.88;;
10410;SDS011;5251;52.112;8.606;2022-08-19T13:06:11;3.08;;;1.90;;
10410;SDS011;5251;52.112;8.606;2022-08-19T13:08:37;2.03;;;1.70;;
10410;SDS011;5251;52.112;8.606;2022-08-19T13:11:16;1.90;;;1.80;;
10410;SDS011;5251;52.112;8.606;2022-08-19T13:13:45;2.13;;;1.98;;
10410;SDS011;5251;52.112;8.606;2022-08-19T13:16:13;2.00;;;1.80;;
10410;SDS011;5251;52.112;8.606;2022-08-19T13:18:40;2.00;;;1.85;;
10410;SDS011;5251;52.112;8.606;2022-08-19T13:21:07;2.78;;;2.05;;
10410;SDS011;5251;52.112;8.606;2022-08-19T13:23:34;3.03;;;1.92;;
10410;SDS011;5251;52.112;8.606;2022-08-19T13:26:04;2.45;;;2.10;;
10410;SDS011;5251;52.112;8.606;2022-08-19T13:28:31;2.45;;;2.25;;
10410;SDS011;5251;52.112;8.606;2022-08-19T13:31:17;1.90;;;1.80;;
10410;SDS011;5251;52.112;8.606;2022-08-19T13:34:03;2.22;;;2.03;;
10410;SDS011;5251;52.112;8.606;2022-08-19T13:36:30;2.15;;;1.88;;
10410;SDS011;5251;52.112;8.606;2022-08-19T13:38:57;2.10;;;1.90;;
10410;SDS011;5251;52.112;8.606;2022-08-19T13:41:22;2.22;;;1.90;;
10410;SDS011;5251;52.112;8.606;2022-08-19T13:43:48;2.53;;;1.98;;
10410;SDS011;5251;52.112;8.606;2022-08-19T13:46:14;2.28;;;1.80;;
10410;SDS011;5251;52.112;8.606;2022-08-19T13:48:40;2.58;;;2.08;;
10410;SDS011;5251;52.112;8.606;2022-08-19T13:51:07;2.10;;;1.90;;
10410;SDS011;5251;52.112;8.606;2022-08-19T13:53:36;2.35;;;2.15;;
10410;SDS011;5251;52.112;8.606;2022-08-19T13:56:06;2.38;;;2.00;;
10410;SDS011;5251;52.112;8.606;2022-08-19T13:58:33;2.13;;;2.00;;
10410;SDS011;5251;52.112;8.606;2022-08-19T14:00:59;2.00;;;1.80;;
10410;SDS011;5251;52.112;8.606;2022-08-19T14:03:25;2.28;;;2.00;;
10410;SDS011;5251;52.112;8.606;2022-08-19T14:05:52;2.00;;;1.90;;
10410;SDS011;5251;52.112;8.606;2022-08-19T14:08:18;2.20;;;2.00;;
10410;SDS011;5251;52.112;8.606;2022-08-19T14:10:44;2.35;;;1.67;;
10410;SDS011;5251;52.112;8.606;2022-08-19T14:13:10;2.20;;;1.85;;
10410;SDS011;5251;52.112;8.606;2022-08-19T14:15:40;2.10;;;1.75;;
10410;SDS011;5251;52.112;8.606;2022-08-19T14:18:05;3.30;;;2.00;;
10410;SDS011;5251;52.112;8.606;2022-08-19T14:20:33;2.58;;;1.70;;
10410;SDS011;5251;52.112;8.606;2022-08-19T14:23:01;1.90;;;1.70;;
10410;SDS011;5251;52.112;8.606;2022-08-19T14:25:28;2.03;;;1.92;;
10410;SDS011;5251;52.112;8.606;2022-08-19T14:27:55;2.00;;;1.70;;
10410;SDS011;5251;52.112;8.606;2022-08-19T14:30:23;1.95;;;1.85;;
10410;SDS011;5251;52.112;8.606;2022-08-19T14:32:52;2.20;;;1.70;;
10410;SDS011;5251;52.112;8.606;2022-08-19T14:35:19;2.50;;;2.10;;
10410;SDS011;5251;52.112;8.606;2022-08-19T14:37:46;2.20;;;2.00;;
10410;SDS011;5251;52.112;8.606;2022-08-19T14:40:17;1.77;;;1.67;;
10410;SDS011;5251;52.112;8.606;2022-08-19T14:42:47;2.58;;;2.10;;
10410;SDS011;5251;52.112;8.606;2022-08-19T14:45:13;2.00;;;1.80;;
10410;SDS011;5251;52.112;8.606;2022-08-19T14:47:39;2.00;;;1.90;;
10410;SDS011;5251;52.112;8.606;2022-08-19T14:50:06;1.77;;;1.65;;
10410;SDS011;5251;52.112;8.606;2022-08-19T14:52:33;2.28;;;1.90;;
10410;SDS011;5251;52.112;8.606;2022-08-19T14:54:58;2.42;;;1.75;;
10410;SDS011;5251;52.112;8.606;2022-08-19T14:57:24;2.03;;;1.90;;
10410;SDS011;5251;52.112;8.606;2022-08-19T14:59:49;2.00;;;1.80;;
10410;SDS011;5251;52.112;8.606;2022-08-19T15:02:15;1.70;;;1.60;;
10410;SDS011;5251;52.112;8.606;2022-08-19T15:04:41;1.90;;;1.80;;
10410;SDS011;5251;52.112;8.606;2022-08-19T15:07:06;2.03;;;1.92;;
10410;SDS011;5251;52.112;8.606;2022-08-19T15:09:32;3.15;;;2.17;;
10410;SDS011;5251;52.112;8.606;2022-08-19T15:11:59;1.70;;;1.60;;
10410;SDS011;5251;52.112;8.606;2022-08-19T15:14:26;1.92;;;1.73;;
10410;SDS011;5251;52.112;8.606;2022-08-19T15:16:53;2.47;;;1.88;;
10410;SDS011;5251;52.112;8.606;2022-08-19T15:19:19;1.80;;;1.70;;
10410;SDS011;5251;52.112;8.606;2022-08-19T15:21:45;2.47;;;2.00;;
10410;SDS011;5251;52.112;8.606;2022-08-19T15:24:10;2.00;;;1.90;;